sensor_id;sensor_type;location;lat;lon;timestamp;P1;durP1;ratioP1;P2;durP2;ratioP2
3329;SDS011;1677;49.576;10.990;2022-11-20T00:00:54;15.82;;;10.20;;
3329;SDS011;1677;49.576;10.990;2022-11-20T00:03:20;16.00;;;10.97;;
3329;SDS011;1677;49.576;10.990;2022-11-20T00:05:46;19.00;;;12.27;;
3329;SDS011;1677;49.576;10.990;2022-11-20T00:08:12;18.10;;;11.00;;
3329;SDS011;1677;49.576;10.990;2022-11-20T00:10:40;17.73;;;10.30;;
3329;SDS011;1677;49.576;10.990;2022-11-20T00:13:06;17.75;;;12.00;;
3329;SDS011;1677;49.576;10.990;2022-11-20T00:15:32;16.88;;;10.73;;
3329;SDS011;1677;49.576;10.990;2022-11-20T00:17:58;13.82;;;9.57;;
3329;SDS011;1677;49.576;10.990;2022-11-20T00:20:23;15.33;;;11.50;;
3329;SDS011;1677;49.576;10.990;2022-11-20T00:22:49;19.03;;;12.00;;
3329;SDS011;1677;49.576;10.990;2022-11-20T00:25:15;17.80;;;10.57;;
3329;SDS011;1677;49.576;10.990;2022-11-20T00:27:41;17.88;;;10.60;;
3329;SDS011;1677;49.576;10.990;2022-11-20T00:30:07;14.23;;;9.63;;
3329;SDS011;1677;49.576;10.990;2022-11-20T00:32:33;15.60;;;10.75;;
3329;SDS011;1677;49.576;10.990;2022-11-20T00:34:58;15.63;;;10.93;;
3329;SDS011;1677;49.576;10.990;2022-11-20T00:37:24;15.80;;;9.77;;
3329;SDS011;1677;49.576;10.990;2022-11-20T00:39:50;16.20;;;11.27;;
3329;SDS011;1677;49.576;10.990;2022-11-20T00:42:15;15.53;;;9.90;;
3329;SDS011;1677;49.576;10.990;2022-11-20T00:44:41;16.20;;;9.03;;
3329;SDS011;1677;49.576;10.990;2022-11-20T00:47:06;14.50;;;9.93;;
3329;SDS011;1677;49.576;10.990;2022-11-20T00:49:32;17.00;;;10.13;;
3329;SDS011;1677;49.576;10.990;2022-11-20T00:51:57;16.17;;;10.20;;
3329;SDS011;1677;49.576;10.990;2022-11-20T00:54:23;16.80;;;10.40;;
3329;SDS011;1677;49.576;10.990;2022-11-20T00:56:48;15.20;;;10.70;;
3329;SDS011;1677;49.576;10.990;2022-11-20T00:59:14;16.67;;;10.40;;
3329;SDS011;1677;49.576;10.990;2022-11-20T01:01:40;17.77;;;10.00;;
3329;SDS011;1677;49.576;10.990;2022-11-20T01:04:05;14.80;;;10.17;;
3329;SDS011;1677;49.576;10.990;2022-11-20T01:06:32;15.63;;;9.60;;
3329;SDS011;1677;49.576;10.990;2022-11-20T01:09:02;16.20;;;10.05;;
3329;SDS011;1677;49.576;10.990;2022-11-20T01:11:36;18.67;;;11.10;;
3329;SDS011;1677;49.576;10.990;2022-11-20T01:14:04;17.00;;;9.85;;
3329;SDS011;1677;49.576;10.990;2022-11-20T01:16:32;16.05;;;10.98;;
3329;SDS011;1677;49.576;10.990;2022-11-20T01:19:01;17.63;;;11.80;;
3329;SDS011;1677;49.576;10.990;2022-11-20T01:21:29;16.42;;;10.35;;
3329;SDS011;1677;49.576;10.990;2022-11-20T01:23:59;14.57;;;10.45;;
3329;SDS011;1677;49.576;10.990;2022-11-20T01:26:27;16.98;;;10.15;;
3329;SDS011;1677;49.576;10.990;2022-11-20T01:28:55;18.10;;;10.98;;
3329;SDS011;1677;49.576;10.990;2022-11-20T01:33:52;16.55;;;11.10;;
3329;SDS011;1677;49.576;10.990;2022-11-20T01:36:20;19.15;;;12.73;;
3329;SDS011;1677;49.576;10.990;2022-11-20T01:38:47;14.15;;;9.18;;
3329;SDS011;1677;49.576;10.990;2022-11-20T01:41:15;16.83;;;11.07;;
3329;SDS011;1677;49.576;10.990;2022-11-20T01:44:00;24.75;;;11.77;;
3329;SDS011;1677;49.576;10.990;2022-11-20T01:46:26;19.38;;;11.25;;
3329;SDS011;1677;49.576;10.990;2022-11-20T01:49:00;19.00;;;12.00;;
3329;SDS011;1677;49.576;10.990;2022-11-20T01:54:24;12.75;;;9.90;;
3329;SDS011;1677;49.576;10.990;2022-11-20T01:56:55;17.30;;;10.82;;
3329;SDS011;1677;49.576;10.990;2022-11-20T01:59:23;14.48;;;9.88;;
3329;SDS011;1677;49.576;10.990;2022-11-20T02:01:51;16.23;;;10.65;;
3329;SDS011;1677;49.576;10.990;2022-11-20T02:04:17;15.15;;;10.15;;
3329;SDS011;1677;49.576;10.990;2022-11-20T02:06:44;17.15;;;10.05;;
3329;SDS011;1677;49.576;10.990;2022-11-20T02:09:13;16.98;;;10.35;;
3329;SDS011;1677;49.576;10.990;2022-11-20T02:11:39;16.92;;;10.52;;
3329;SDS011;1677;49.576;10.990;2022-11-20T02:14:05;16.07;;;10.07;;
3329;SDS011;1677;49.576;10.990;2022-11-20T02:16:33;16.35;;;10.38;;
3329;SDS011;1677;49.576;10.990;2022-11-20T02:19:01;16.67;;;9.40;;
3329;SDS011;1677;49.576;10.990;2022-11-20T02:24:29;16.95;;;10.57;;
3329;SDS011;1677;49.576;10.990;2022-11-20T02:27:14;16.20;;;11.23;;
3329;SDS011;1677;49.576;10.990;2022-11-20T02:29:42;16.15;;;10.55;;
3329;SDS011;1677;49.576;10.990;2022-11-20T02:32:19;18.50;;;11.30;;
3329;SDS011;1677;49.576;10.990;2022-11-20T02:34:54;18.63;;;10.68;;
3329;SDS011;1677;49.576;10.990;2022-11-20T02:37:20;16.90;;;10.27;;
3329;SDS011;1677;49.576;10.990;2022-11-20T02:39:47;15.65;;;10.88;;
3329;SDS011;1677;49.576;10.990;2022-11-20T02:42:14;19.33;;;11.07;;
3329;SDS011;1677;49.576;10.990;2022-11-20T02:44:40;16.00;;;10.60;;
3329;SDS011;1677;49.576;10.990;2022-11-20T02:47:05;15.00;;;11.60;;
3329;SDS011;1677;49.576;10.990;2022-11-20T02:49:31;17.80;;;10.57;;
3329;SDS011;1677;49.576;10.990;2022-11-20T02:51:56;17.90;;;10.60;;
3329;SDS011;1677;49.576;10.990;2022-11-20T02:54:22;16.90;;;11.50;;
3329;SDS011;1677;49.576;10.990;2022-11-20T02:56:48;18.52;;;11.43;;
3329;SDS011;1677;49.576;10.990;2022-11-20T02:59:13;18.43;;;10.70;;
3329;SDS011;1677;49.576;10.990;2022-11-20T03:01:39;18.23;;;11.13;;
3329;SDS011;1677;49.576;10.990;2022-11-20T03:04:05;14.50;;;10.17;;
3329;SDS011;1677;49.576;10.990;2022-11-20T03:06:30;20.37;;;11.93;;
3329;SDS011;1677;49.576;10.990;2022-11-20T03:08:56;20.52;;;11.07;;
3329;SDS011;1677;49.576;10.990;2022-11-20T03:11:22;14.60;;;10.00;;
3329;SDS011;1677;49.576;10.990;2022-11-20T03:13:47;19.37;;;12.33;;
3329;SDS011;1677;49.576;10.990;2022-11-20T03:16:14;15.93;;;10.60;;
3329;SDS011;1677;49.576;10.990;2022-11-20T03:18:42;16.33;;;10.25;;
3329;SDS011;1677;49.576;10.990;2022-11-20T03:21:08;15.70;;;10.85;;
3329;SDS011;1677;49.576;10.990;2022-11-20T03:23:35;17.48;;;11.27;;
3329;SDS011;1677;49.576;10.990;2022-11-20T03:26:34;19.08;;;11.38;;
3329;SDS011;1677;49.576;10.990;2022-11-20T03:28:54;14.75;;;9.35;;
3329;SDS011;1677;49.576;10.990;2022-11-20T03:31:22;18.33;;;10.38;;
3329;SDS011;1677;49.576;10.990;2022-11-20T03:34:07;14.07;;;10.27;;
3329;SDS011;1677;49.576;10.990;2022-11-20T03:36:34;19.10;;;12.30;;
3329;SDS011;1677;49.576;10.990;2022-11-20T03:39:00;19.13;;;11.85;;
3329;SDS011;1677;49.576;10.990;2022-11-20T03:41:26;17.37;;;10.20;;
3329;SDS011;1677;49.576;10.990;2022-11-20T03:43:55;18.15;;;11.00;;
3329;SDS011;1677;49.576;10.990;2022-11-20T03:46:28;18.70;;;10.95;;
3329;SDS011;1677;49.576;10.990;2022-11-20T03:48:54;17.35;;;10.48;;
3329;SDS011;1677;49.576;10.990;2022-11-20T03:51:21;19.00;;;11.00;;
3329;SDS011;1677;49.576;10.990;2022-11-20T03:53:48;20.50;;;11.35;;
3329;SDS011;1677;49.576;10.990;2022-11-20T03:56:15;23.08;;;11.73;;
3329;SDS011;1677;49.576;10.990;2022-11-20T03:58:42;23.63;;;11.50;;
3329;SDS011;1677;49.576;10.990;2022-11-20T04:01:09;16.57;;;11.13;;
3329;SDS011;1677;49.576;10.990;2022-11-20T04:03:37;16.38;;;10.30;;
3329;SDS011;1677;49.576;10.990;2022-11-20T04:06:04;15.45;;;11.00;;
3329;SDS011;1677;49.576;10.990;2022-11-20T04:08:31;19.05;;;11.15;;
3329;SDS011;1677;49.576;10.990;2022-11-20T04:11:07;18.00;;;11.13;;
3329;SDS011;1677;49.576;10.990;2022-11-20T04:13:46;16.83;;;11.02;;
3329;SDS011;1677;49.576;10.990;2022-11-20T04:16:13;21.55;;;10.75;;
3329;SDS011;1677;49.576;10.990;2022-11-20T04:18:39;18.73;;;11.57;;
3329;SDS011;1677;49.576;10.990;2022-11-20T04:21:05;19.87;;;11.53;;
3329;SDS011;1677;49.576;10.990;2022-11-20T04:23:31;17.92;;;11.38;;
3329;SDS011;1677;49.576;10.990;2022-11-20T04:26:04;19.57;;;10.97;;
3329;SDS011;1677;49.576;10.990;2022-11-20T04:28:34;18.35;;;11.45;;
3329;SDS011;1677;49.576;10.990;2022-11-20T04:31:01;21.45;;;10.68;;
3329;SDS011;1677;49.576;10.990;2022-11-20T04:33:35;16.83;;;11.45;;
3329;SDS011;1677;49.576;10.990;2022-11-20T04:36:02;24.20;;;12.02;;
3329;SDS011;1677;49.576;10.990;2022-11-20T04:38:29;18.20;;;11.10;;
3329;SDS011;1677;49.576;10.990;2022-11-20T04:40:58;19.67;;;11.57;;
3329;SDS011;1677;49.576;10.990;2022-11-20T04:43:24;18.77;;;11.40;;
3329;SDS011;1677;49.576;10.990;2022-11-20T04:45:51;20.73;;;10.60;;
3329;SDS011;1677;49.576;10.990;2022-11-20T04:48:17;21.60;;;13.15;;
3329;SDS011;1677;49.576;10.990;2022-11-20T04:50:43;21.07;;;12.27;;
3329;SDS011;1677;49.576;10.990;2022-11-20T04:53:08;19.80;;;11.80;;
3329;SDS011;1677;49.576;10.990;2022-11-20T04:55:34;20.20;;;11.20;;
3329;SDS011;1677;49.576;10.990;2022-11-20T04:58:00;17.83;;;10.67;;
3329;SDS011;1677;49.576;10.990;2022-11-20T05:00:25;19.40;;;11.60;;
3329;SDS011;1677;49.576;10.990;2022-11-20T05:02:51;16.70;;;9.90;;
3329;SDS011;1677;49.576;10.990;2022-11-20T05:05:16;15.70;;;11.00;;
3329;SDS011;1677;49.576;10.990;2022-11-20T05:07:42;19.17;;;10.83;;
3329;SDS011;1677;49.576;10.990;2022-11-20T05:10:07;15.43;;;10.87;;
3329;SDS011;1677;49.576;10.990;2022-11-20T05:12:33;23.57;;;11.90;;
3329;SDS011;1677;49.576;10.990;2022-11-20T05:14:58;19.90;;;11.63;;
3329;SDS011;1677;49.576;10.990;2022-11-20T05:17:24;21.93;;;12.90;;
3329;SDS011;1677;49.576;10.990;2022-11-20T05:19:49;19.43;;;11.17;;
3329;SDS011;1677;49.576;10.990;2022-11-20T05:22:15;18.00;;;10.30;;
3329;SDS011;1677;49.576;10.990;2022-11-20T05:24:41;15.40;;;10.47;;
3329;SDS011;1677;49.576;10.990;2022-11-20T05:27:06;19.43;;;11.80;;
3329;SDS011;1677;49.576;10.990;2022-11-20T05:29:32;19.73;;;10.70;;
3329;SDS011;1677;49.576;10.990;2022-11-20T05:31:57;17.37;;;9.83;;
3329;SDS011;1677;49.576;10.990;2022-11-20T05:34:23;17.73;;;10.23;;
3329;SDS011;1677;49.576;10.990;2022-11-20T05:36:48;18.90;;;10.43;;
3329;SDS011;1677;49.576;10.990;2022-11-20T05:39:14;19.40;;;11.60;;
3329;SDS011;1677;49.576;10.990;2022-11-20T05:41:39;16.73;;;11.30;;
3329;SDS011;1677;49.576;10.990;2022-11-20T05:44:05;16.33;;;9.97;;
3329;SDS011;1677;49.576;10.990;2022-11-20T05:46:30;17.77;;;10.60;;
3329;SDS011;1677;49.576;10.990;2022-11-20T05:48:56;20.27;;;10.77;;
3329;SDS011;1677;49.576;10.990;2022-11-20T05:51:23;18.30;;;12.02;;
3329;SDS011;1677;49.576;10.990;2022-11-20T05:53:49;26.40;;;13.25;;
3329;SDS011;1677;49.576;10.990;2022-11-20T05:56:16;22.80;;;13.67;;
3329;SDS011;1677;49.576;10.990;2022-11-20T05:58:43;19.00;;;11.40;;
3329;SDS011;1677;49.576;10.990;2022-11-20T06:01:13;21.83;;;12.05;;
3329;SDS011;1677;49.576;10.990;2022-11-20T06:03:41;22.65;;;12.75;;
3329;SDS011;1677;49.576;10.990;2022-11-20T06:06:08;19.85;;;10.68;;
3329;SDS011;1677;49.576;10.990;2022-11-20T06:08:34;22.07;;;12.30;;
3329;SDS011;1677;49.576;10.990;2022-11-20T06:11:06;21.57;;;11.97;;
3329;SDS011;1677;49.576;10.990;2022-11-20T06:13:34;22.30;;;12.38;;
3329;SDS011;1677;49.576;10.990;2022-11-20T06:16:00;19.70;;;10.63;;
3329;SDS011;1677;49.576;10.990;2022-11-20T06:18:26;14.93;;;10.03;;
3329;SDS011;1677;49.576;10.990;2022-11-20T06:21:00;15.00;;;10.57;;
3329;SDS011;1677;49.576;10.990;2022-11-20T06:23:37;18.08;;;11.00;;
3329;SDS011;1677;49.576;10.990;2022-11-20T06:26:03;15.87;;;10.63;;
3329;SDS011;1677;49.576;10.990;2022-11-20T06:28:30;17.55;;;10.65;;
3329;SDS011;1677;49.576;10.990;2022-11-20T06:30:56;17.23;;;11.17;;
3329;SDS011;1677;49.576;10.990;2022-11-20T06:33:22;17.02;;;9.48;;
3329;SDS011;1677;49.576;10.990;2022-11-20T06:35:48;16.23;;;10.43;;
3329;SDS011;1677;49.576;10.990;2022-11-20T06:38:13;15.23;;;9.80;;
3329;SDS011;1677;49.576;10.990;2022-11-20T06:40:42;18.87;;;10.30;;
3329;SDS011;1677;49.576;10.990;2022-11-20T06:43:08;16.55;;;10.10;;
3329;SDS011;1677;49.576;10.990;2022-11-20T06:45:35;15.73;;;9.75;;
3329;SDS011;1677;49.576;10.990;2022-11-20T06:48:01;16.58;;;10.15;;
3329;SDS011;1677;49.576;10.990;2022-11-20T06:50:26;16.77;;;10.13;;
3329;SDS011;1677;49.576;10.990;2022-11-20T06:52:52;18.10;;;10.07;;
3329;SDS011;1677;49.576;10.990;2022-11-20T06:55:17;17.00;;;10.00;;
3329;SDS011;1677;49.576;10.990;2022-11-20T06:57:43;19.07;;;10.93;;
3329;SDS011;1677;49.576;10.990;2022-11-20T07:00:09;16.30;;;10.30;;
3329;SDS011;1677;49.576;10.990;2022-11-20T07:02:35;16.15;;;9.77;;
3329;SDS011;1677;49.576;10.990;2022-11-20T07:05:00;15.53;;;10.63;;
3329;SDS011;1677;49.576;10.990;2022-11-20T07:07:26;16.27;;;10.27;;
3329;SDS011;1677;49.576;10.990;2022-11-20T07:09:51;18.07;;;10.67;;
3329;SDS011;1677;49.576;10.990;2022-11-20T07:12:17;19.20;;;11.00;;
3329;SDS011;1677;49.576;10.990;2022-11-20T07:14:42;13.97;;;9.67;;
3329;SDS011;1677;49.576;10.990;2022-11-20T07:17:08;13.97;;;8.73;;
3329;SDS011;1677;49.576;10.990;2022-11-20T07:19:33;15.90;;;9.00;;
3329;SDS011;1677;49.576;10.990;2022-11-20T07:21:59;16.43;;;9.23;;
3329;SDS011;1677;49.576;10.990;2022-11-20T07:24:25;16.53;;;10.37;;
3329;SDS011;1677;49.576;10.990;2022-11-20T07:26:50;15.90;;;9.93;;
3329;SDS011;1677;49.576;10.990;2022-11-20T07:29:16;15.53;;;8.43;;
3329;SDS011;1677;49.576;10.990;2022-11-20T07:31:42;17.23;;;11.35;;
3329;SDS011;1677;49.576;10.990;2022-11-20T07:34:08;15.05;;;10.50;;
3329;SDS011;1677;49.576;10.990;2022-11-20T07:36:34;17.27;;;10.23;;
3329;SDS011;1677;49.576;10.990;2022-11-20T07:38:59;16.57;;;9.40;;
3329;SDS011;1677;49.576;10.990;2022-11-20T07:41:25;15.60;;;9.33;;
3329;SDS011;1677;49.576;10.990;2022-11-20T07:43:51;14.50;;;8.80;;
3329;SDS011;1677;49.576;10.990;2022-11-20T07:46:16;20.43;;;10.60;;
3329;SDS011;1677;49.576;10.990;2022-11-20T07:48:42;21.13;;;10.53;;
3329;SDS011;1677;49.576;10.990;2022-11-20T07:51:07;17.30;;;11.20;;
3329;SDS011;1677;49.576;10.990;2022-11-20T07:53:33;12.97;;;8.67;;
3329;SDS011;1677;49.576;10.990;2022-11-20T07:55:59;14.20;;;9.37;;
3329;SDS011;1677;49.576;10.990;2022-11-20T07:58:26;17.23;;;9.98;;
3329;SDS011;1677;49.576;10.990;2022-11-20T08:00:53;16.25;;;10.13;;
3329;SDS011;1677;49.576;10.990;2022-11-20T08:03:19;20.37;;;10.90;;
3329;SDS011;1677;49.576;10.990;2022-11-20T08:05:44;18.13;;;9.63;;
3329;SDS011;1677;49.576;10.990;2022-11-20T08:08:10;15.17;;;9.27;;
3329;SDS011;1677;49.576;10.990;2022-11-20T08:10:35;16.73;;;11.03;;
3329;SDS011;1677;49.576;10.990;2022-11-20T08:13:01;29.50;;;11.33;;
3329;SDS011;1677;49.576;10.990;2022-11-20T08:15:49;15.90;;;9.85;;
3329;SDS011;1677;49.576;10.990;2022-11-20T08:18:18;15.23;;;10.30;;
3329;SDS011;1677;49.576;10.990;2022-11-20T08:20:44;16.40;;;10.33;;
3329;SDS011;1677;49.576;10.990;2022-11-20T08:23:10;15.00;;;9.20;;
3329;SDS011;1677;49.576;10.990;2022-11-20T08:25:36;19.17;;;11.60;;
3329;SDS011;1677;49.576;10.990;2022-11-20T08:28:07;22.05;;;13.07;;
3329;SDS011;1677;49.576;10.990;2022-11-20T08:30:34;20.17;;;13.07;;
3329;SDS011;1677;49.576;10.990;2022-11-20T08:33:04;20.50;;;12.30;;
3329;SDS011;1677;49.576;10.990;2022-11-20T08:35:33;19.77;;;12.40;;
3329;SDS011;1677;49.576;10.990;2022-11-20T08:38:02;15.98;;;10.75;;
3329;SDS011;1677;49.576;10.990;2022-11-20T08:40:29;18.58;;;11.63;;
3329;SDS011;1677;49.576;10.990;2022-11-20T08:42:56;23.50;;;13.80;;
3329;SDS011;1677;49.576;10.990;2022-11-20T08:45:21;21.60;;;12.40;;
3329;SDS011;1677;49.576;10.990;2022-11-20T08:47:47;18.37;;;12.20;;
3329;SDS011;1677;49.576;10.990;2022-11-20T08:50:13;17.53;;;11.10;;
3329;SDS011;1677;49.576;10.990;2022-11-20T08:52:40;20.88;;;12.35;;
3329;SDS011;1677;49.576;10.990;2022-11-20T08:55:06;20.27;;;12.85;;
3329;SDS011;1677;49.576;10.990;2022-11-20T08:57:36;21.15;;;12.98;;
3329;SDS011;1677;49.576;10.990;2022-11-20T09:00:03;21.88;;;12.57;;
3329;SDS011;1677;49.576;10.990;2022-11-20T09:02:30;16.30;;;10.93;;
3329;SDS011;1677;49.576;10.990;2022-11-20T09:04:57;19.63;;;12.00;;
3329;SDS011;1677;49.576;10.990;2022-11-20T09:07:22;22.03;;;13.03;;
3329;SDS011;1677;49.576;10.990;2022-11-20T09:09:48;18.80;;;10.67;;
3329;SDS011;1677;49.576;10.990;2022-11-20T09:12:13;16.17;;;11.20;;
3329;SDS011;1677;49.576;10.990;2022-11-20T09:14:39;19.17;;;11.87;;
3329;SDS011;1677;49.576;10.990;2022-11-20T09:17:05;17.17;;;11.60;;
3329;SDS011;1677;49.576;10.990;2022-11-20T09:19:32;19.65;;;11.57;;
3329;SDS011;1677;49.576;10.990;2022-11-20T09:21:58;18.00;;;11.90;;
3329;SDS011;1677;49.576;10.990;2022-11-20T09:24:24;16.48;;;10.35;;
3329;SDS011;1677;49.576;10.990;2022-11-20T09:26:50;17.95;;;12.07;;
3329;SDS011;1677;49.576;10.990;2022-11-20T09:29:16;17.00;;;11.93;;
3329;SDS011;1677;49.576;10.990;2022-11-20T09:31:42;14.27;;;9.53;;
3329;SDS011;1677;49.576;10.990;2022-11-20T09:34:07;17.13;;;10.17;;
3329;SDS011;1677;49.576;10.990;2022-11-20T09:36:33;16.33;;;10.57;;
3329;SDS011;1677;49.576;10.990;2022-11-20T09:38:58;13.60;;;9.40;;
3329;SDS011;1677;49.576;10.990;2022-11-20T09:44:31;15.73;;;8.93;;
3329;SDS011;1677;49.576;10.990;2022-11-20T09:54:56;11.82;;;8.48;;
3329;SDS011;1677;49.576;10.990;2022-11-20T09:57:33;15.65;;;9.60;;
3329;SDS011;1677;49.576;10.990;2022-11-20T10:00:02;16.85;;;10.38;;
3329;SDS011;1677;49.576;10.990;2022-11-20T10:05:09;15.00;;;9.90;;
3329;SDS011;1677;49.576;10.990;2022-11-20T10:07:47;13.70;;;10.00;;
3329;SDS011;1677;49.576;10.990;2022-11-20T10:10:44;16.95;;;9.02;;
3329;SDS011;1677;49.576;10.990;2022-11-20T10:16:14;13.32;;;9.60;;
3329;SDS011;1677;49.576;10.990;2022-11-20T10:27:27;17.90;;;10.57;;
3329;SDS011;1677;49.576;10.990;2022-11-20T10:30:14;17.00;;;10.65;;
3329;SDS011;1677;49.576;10.990;2022-11-20T10:32:48;17.92;;;11.75;;
3329;SDS011;1677;49.576;10.990;2022-11-20T10:38:06;13.63;;;9.73;;
3329;SDS011;1677;49.576;10.990;2022-11-20T10:40:43;15.38;;;10.73;;
3329;SDS011;1677;49.576;10.990;2022-11-20T10:43:14;15.65;;;9.77;;
3329;SDS011;1677;49.576;10.990;2022-11-20T10:45:56;17.45;;;11.43;;
3329;SDS011;1677;49.576;10.990;2022-11-20T10:48:27;14.38;;;10.30;;
3329;SDS011;1677;49.576;10.990;2022-11-20T10:51:12;14.27;;;10.73;;
3329;SDS011;1677;49.576;10.990;2022-11-20T11:01:43;13.80;;;9.35;;
3329;SDS011;1677;49.576;10.990;2022-11-20T11:04:17;16.02;;;10.07;;
3329;SDS011;1677;49.576;10.990;2022-11-20T11:07:23;18.75;;;10.43;;
3329;SDS011;1677;49.576;10.990;2022-11-20T11:09:52;17.77;;;10.88;;
3329;SDS011;1677;49.576;10.990;2022-11-20T11:12:19;15.60;;;11.00;;
3329;SDS011;1677;49.576;10.990;2022-11-20T11:14:55;22.58;;;11.43;;
3329;SDS011;1677;49.576;10.990;2022-11-20T11:17:31;15.27;;;11.50;;
3329;SDS011;1677;49.576;10.990;2022-11-20T11:22:42;21.27;;;11.95;;
3329;SDS011;1677;49.576;10.990;2022-11-20T11:27:53;19.83;;;14.48;;
3329;SDS011;1677;49.576;10.990;2022-11-20T11:30:21;17.27;;;11.45;;
3329;SDS011;1677;49.576;10.990;2022-11-20T11:32:49;18.58;;;11.43;;
3329;SDS011;1677;49.576;10.990;2022-11-20T11:35:27;17.90;;;12.60;;
3329;SDS011;1677;49.576;10.990;2022-11-20T11:38:06;19.48;;;12.57;;
3329;SDS011;1677;49.576;10.990;2022-11-20T11:40:37;14.55;;;11.35;;
3329;SDS011;1677;49.576;10.990;2022-11-20T11:43:06;12.65;;;10.80;;
3329;SDS011;1677;49.576;10.990;2022-11-20T11:46:01;15.75;;;10.57;;
3329;SDS011;1677;49.576;10.990;2022-11-20T11:48:28;19.75;;;11.88;;
3329;SDS011;1677;49.576;10.990;2022-11-20T11:50:54;16.60;;;10.60;;
3329;SDS011;1677;49.576;10.990;2022-11-20T11:53:23;16.33;;;12.43;;
3329;SDS011;1677;49.576;10.990;2022-11-20T11:55:59;13.13;;;10.00;;
3329;SDS011;1677;49.576;10.990;2022-11-20T12:06:47;15.77;;;8.38;;
3329;SDS011;1677;49.576;10.990;2022-11-20T12:09:18;10.65;;;7.07;;
3329;SDS011;1677;49.576;10.990;2022-11-20T12:11:53;10.23;;;7.90;;
3329;SDS011;1677;49.576;10.990;2022-11-20T12:14:40;19.55;;;8.85;;
3329;SDS011;1677;49.576;10.990;2022-11-20T12:17:12;13.23;;;9.60;;
3329;SDS011;1677;49.576;10.990;2022-11-20T12:19:39;13.63;;;8.75;;
3329;SDS011;1677;49.576;10.990;2022-11-20T12:30:35;14.73;;;9.95;;
3329;SDS011;1677;49.576;10.990;2022-11-20T12:36:28;12.18;;;7.47;;
3329;SDS011;1677;49.576;10.990;2022-11-20T12:39:22;13.48;;;8.55;;
3329;SDS011;1677;49.576;10.990;2022-11-20T12:42:05;9.88;;;7.88;;
3329;SDS011;1677;49.576;10.990;2022-11-20T12:45:10;13.75;;;8.20;;
3329;SDS011;1677;49.576;10.990;2022-11-20T12:47:50;11.40;;;7.03;;
3329;SDS011;1677;49.576;10.990;2022-11-20T12:53:41;9.40;;;5.50;;
3329;SDS011;1677;49.576;10.990;2022-11-20T12:58:48;6.10;;;5.50;;
3329;SDS011;1677;49.576;10.990;2022-11-20T13:06:59;10.90;;;6.80;;
3329;SDS011;1677;49.576;10.990;2022-11-20T13:09:32;7.80;;;6.93;;
3329;SDS011;1677;49.576;10.990;2022-11-20T13:12:10;8.48;;;6.78;;
3329;SDS011;1677;49.576;10.990;2022-11-20T13:20:26;9.93;;;6.75;;
3329;SDS011;1677;49.576;10.990;2022-11-20T13:22:53;11.40;;;7.18;;
3329;SDS011;1677;49.576;10.990;2022-11-20T13:25:26;10.45;;;6.45;;
3329;SDS011;1677;49.576;10.990;2022-11-20T13:27:52;11.10;;;6.18;;
3329;SDS011;1677;49.576;10.990;2022-11-20T13:30:22;11.68;;;7.88;;
3329;SDS011;1677;49.576;10.990;2022-11-20T13:32:53;9.85;;;6.53;;
3329;SDS011;1677;49.576;10.990;2022-11-20T13:35:29;9.98;;;7.20;;
3329;SDS011;1677;49.576;10.990;2022-11-20T13:38:08;10.85;;;7.40;;
3329;SDS011;1677;49.576;10.990;2022-11-20T13:40:54;12.13;;;8.07;;
3329;SDS011;1677;49.576;10.990;2022-11-20T13:43:23;11.70;;;8.20;;
3329;SDS011;1677;49.576;10.990;2022-11-20T13:46:06;12.23;;;9.20;;
3329;SDS011;1677;49.576;10.990;2022-11-20T13:48:39;11.05;;;8.18;;
3329;SDS011;1677;49.576;10.990;2022-11-20T13:54:11;11.77;;;7.13;;
3329;SDS011;1677;49.576;10.990;2022-11-20T13:57:06;9.23;;;8.27;;
3329;SDS011;1677;49.576;10.990;2022-11-20T14:02:22;11.88;;;8.60;;
3329;SDS011;1677;49.576;10.990;2022-11-20T14:04:54;11.30;;;7.88;;
3329;SDS011;1677;49.576;10.990;2022-11-20T14:07:26;12.15;;;7.22;;
3329;SDS011;1677;49.576;10.990;2022-11-20T14:09:57;11.23;;;7.05;;
3329;SDS011;1677;49.576;10.990;2022-11-20T14:12:30;14.27;;;7.33;;
3329;SDS011;1677;49.576;10.990;2022-11-20T14:14:57;10.20;;;8.80;;
3329;SDS011;1677;49.576;10.990;2022-11-20T14:17:24;14.68;;;7.78;;
3329;SDS011;1677;49.576;10.990;2022-11-20T14:20:22;11.18;;;8.20;;
3329;SDS011;1677;49.576;10.990;2022-11-20T14:22:50;11.43;;;9.07;;
3329;SDS011;1677;49.576;10.990;2022-11-20T14:27:51;15.10;;;9.82;;
3329;SDS011;1677;49.576;10.990;2022-11-20T14:30:23;11.13;;;8.15;;
3329;SDS011;1677;49.576;10.990;2022-11-20T14:32:51;12.88;;;10.00;;
3329;SDS011;1677;49.576;10.990;2022-11-20T14:35:24;15.27;;;9.80;;
3329;SDS011;1677;49.576;10.990;2022-11-20T14:37:52;13.90;;;10.52;;
3329;SDS011;1677;49.576;10.990;2022-11-20T14:42:52;11.30;;;9.20;;
3329;SDS011;1677;49.576;10.990;2022-11-20T14:45:18;13.13;;;8.90;;
3329;SDS011;1677;49.576;10.990;2022-11-20T14:47:45;14.50;;;9.93;;
3329;SDS011;1677;49.576;10.990;2022-11-20T14:50:16;18.42;;;10.50;;
3329;SDS011;1677;49.576;10.990;2022-11-20T14:52:53;12.30;;;9.32;;
3329;SDS011;1677;49.576;10.990;2022-11-20T14:55:37;11.73;;;10.05;;
3329;SDS011;1677;49.576;10.990;2022-11-20T14:58:22;13.95;;;10.52;;
3329;SDS011;1677;49.576;10.990;2022-11-20T15:00:56;12.85;;;9.52;;
3329;SDS011;1677;49.576;10.990;2022-11-20T15:03:30;14.77;;;9.73;;
3329;SDS011;1677;49.576;10.990;2022-11-20T15:05:59;10.02;;;8.25;;
3329;SDS011;1677;49.576;10.990;2022-11-20T15:08:25;14.65;;;9.30;;
3329;SDS011;1677;49.576;10.990;2022-11-20T15:10:52;12.38;;;9.23;;
3329;SDS011;1677;49.576;10.990;2022-11-20T15:13:37;14.20;;;9.82;;
3329;SDS011;1677;49.576;10.990;2022-11-20T15:16:08;14.00;;;9.70;;
3329;SDS011;1677;49.576;10.990;2022-11-20T15:18:42;12.18;;;8.48;;
3329;SDS011;1677;49.576;10.990;2022-11-20T15:21:12;14.53;;;8.17;;
3329;SDS011;1677;49.576;10.990;2022-11-20T15:23:40;15.98;;;10.65;;
3329;SDS011;1677;49.576;10.990;2022-11-20T15:26:06;15.50;;;9.73;;
3329;SDS011;1677;49.576;10.990;2022-11-20T15:28:33;15.43;;;10.60;;
3329;SDS011;1677;49.576;10.990;2022-11-20T15:31:02;13.77;;;9.57;;
3329;SDS011;1677;49.576;10.990;2022-11-20T15:33:29;14.40;;;8.98;;
3329;SDS011;1677;49.576;10.990;2022-11-20T15:35:55;14.38;;;9.77;;
3329;SDS011;1677;49.576;10.990;2022-11-20T15:38:20;13.13;;;9.67;;
3329;SDS011;1677;49.576;10.990;2022-11-20T15:40:46;15.60;;;9.47;;
3329;SDS011;1677;49.576;10.990;2022-11-20T15:43:11;14.90;;;9.93;;
3329;SDS011;1677;49.576;10.990;2022-11-20T15:45:48;14.10;;;8.87;;
3329;SDS011;1677;49.576;10.990;2022-11-20T15:48:37;11.20;;;9.40;;
3329;SDS011;1677;49.576;10.990;2022-11-20T15:51:15;14.15;;;10.40;;
3329;SDS011;1677;49.576;10.990;2022-11-20T15:53:49;12.68;;;9.45;;
3329;SDS011;1677;49.576;10.990;2022-11-20T15:56:15;16.10;;;10.93;;
3329;SDS011;1677;49.576;10.990;2022-11-20T15:58:40;15.27;;;10.93;;
3329;SDS011;1677;49.576;10.990;2022-11-20T16:01:13;20.50;;;11.80;;
3329;SDS011;1677;49.576;10.990;2022-11-20T16:03:41;18.63;;;11.88;;
3329;SDS011;1677;49.576;10.990;2022-11-20T16:06:07;15.00;;;10.77;;
3329;SDS011;1677;49.576;10.990;2022-11-20T16:08:32;15.47;;;10.50;;
3329;SDS011;1677;49.576;10.990;2022-11-20T16:10:58;17.47;;;9.70;;
3329;SDS011;1677;49.576;10.990;2022-11-20T16:13:24;14.03;;;10.87;;
3329;SDS011;1677;49.576;10.990;2022-11-20T16:16:17;16.23;;;11.23;;
3329;SDS011;1677;49.576;10.990;2022-11-20T16:18:47;17.92;;;11.00;;
3329;SDS011;1677;49.576;10.990;2022-11-20T16:21:13;15.90;;;11.05;;
3329;SDS011;1677;49.576;10.990;2022-11-20T16:23:39;20.27;;;11.63;;
3329;SDS011;1677;49.576;10.990;2022-11-20T16:26:08;12.13;;;10.15;;
3329;SDS011;1677;49.576;10.990;2022-11-20T16:28:35;14.07;;;11.05;;